Saturday, November 22, 2014
14:17 UTC
  |  Log In   |  Register Free
Airport Search:

Farmington Regional Airport
(KFAM)

Farmington Regional Airport Diagram
No Airport Diagram Available

FAA data valid effective November 13, 2014 - January 08, 2015 (unless otherwise noted).

 
 
 
 
 
 
 
 
 
 
 
 
 
 

Current Aviation Weather for Farmington Regional Airport (KFAM)

The most recent METAR observation for KFAM was updated at: 1411
METAR Summary (Translated METAR)
KFAM
221355Z AUTO 14011KT 10SM OVC038 09/06 A3017 RMK AO1
KSAR
221355Z AUTO 19014G19KT 10SM BKN046 BKN055 OVC065 10/06 A3017 RMK AO2 T00980063
(41.7 nm NE from KFAM)
KSAR
221355Z AUTO 19014G19KT 10SM BKN046 BKN055 OVC065 10/06 A3017 RMK AO2 T00980063
(41.7 nm NE from KFAM)
TAF
No TAF information found within 50 nm of KFAM
  Airport Weather Conditions for KFAM

 Current Weather at FAM
48° F
Overcast
Southeast winds at 12.7 mph
FAM NOAA Radar

Pressure: 30.17 in
Humidity: 82%
Wind: Southeast at 12.7 MPH (11 KT)
Dew Point: 42.8°F
Visibility: 10.00 mi


Airport Weather Forecast for KFAM

Translated METAR and TAF for KFAM
Translated METAR for KFAM (1412 UTC 22 November 2014)
found at http://aviationweather.gov/adds/metars/
 
METAR text: KFAM 221355Z AUTO 14011KT 10SM OVC038 09/06 A3017 RMK AO1
Conditions at: KFAM (FARMINGTON , MO, US) observed 1355 UTC 22 November 2014
Temperature: 9.0°C (48°F)
Dewpoint: 6.0°C (43°F) [RH = 81%]
Pressure (altimeter): 30.17 inches Hg (1021.8 mb)
Winds: from the SE (140 degrees) at 13 MPH (11 knots; 5.7 m/s)
Visibility: 10 or more miles (16+ km)
Ceiling: 3800 feet AGL
Clouds: overcast cloud deck at 3800 feet AGL
Weather: automated observation with no human augmentation;
there may or may not be significant weather present at this time
Translated TAF for KFAM

There is no translated TAF available for this airport

Find All Airport Services Find A Hotel Find A Rental Car Find A Golf Course Find A Restaurant $100 Hamburger



FBO's on the Field
FBO Company Facility Photos Services Transportation Aviation Fuel Prices: Prices include tax
Catering Weather Repair Courtesy Rental Type 100LL JetA JetA+ MOGAS 8087
 
Farmington Regional Airport

This FBO has not yet been rated
FS:Shell
Last Updated: Oct-28
Login to update fuel prices
SS:
Contact Farmington Regional AirportMore FBO Information
 
Add another FBO Facility Photos Catering Weather Repair Courtesy Rental Type 100LL JetA JetA+ MOGAS 8087
Services Transportation Aviation Fuel Prices: Prices include tax


model-print
model-print
model-print
model-print